Terminal Aerodrome Forecast
Issued by NWS

Home | Current Version | Previous Version | Text Only | Print | Product List | Glossary Off
Versions: 1 2 3 4 5 6 7 8 9 10 11 12 13 14 15 16

897
FTUS42 KMHX 051140
TAFOAJ
TAF
KOAJ 051140Z 0512/0612 33007KT 5SM -RA SCT004 OVC005
     FM051400 34007KT P6SM BKN007
     FM051530 34007KT P6SM SCT007 OVC020
     FM051700 35007KT P6SM BKN050
     FM060500 04008KT 5SM -RA SCT015 OVC035
      AMD LTD TO CLD VIS AND WIND=

USA.gov is the U.S. government's official web portal to all federal, state and local government web resources and services.